Time;durP1;ratioP1;P1;durP2;ratioP2;P2;SDS_P1;SDS_P2;PMS_P1;PMS_P2;Temp;Humidity;BMP_temperature;BMP_pressure;BME280_temperature;BME280_humidity;BME280_pressure;Samples;Min_cycle;Max_cycle;Signal;HPM_P1;HPM_P2
2022/01/23 00:00:35;;;;;;;7.82;5.88;;;5.80;99.90;;;;;;5051630;28;20056;-52
2022/01/23 00:03:20;;;;;;;7.57;5.97;;;5.70;99.90;;;;;;5055238;28;20467;-54
2022/01/23 00:06:04;;;;;;;8.82;5.88;;;5.80;99.90;;;;;;5054779;28;20322;-51
2022/01/23 00:08:48;;;;;;;8.02;5.95;;;5.70;99.90;;;;;;5054106;28;20463;-55
2022/01/23 00:11:39;;;;;;;9.20;6.20;;;5.70;99.90;;;;;;5054862;28;20395;-56
2022/01/23 00:17:33;;;;;;;9.32;6.35;;;5.70;99.90;;;;;;5057529;28;20507;-52
2022/01/23 00:20:18;;;;;;;10.77;7.00;;;5.70;99.90;;;;;;5053436;28;20052;-54
2022/01/23 00:23:12;;;;;;;8.23;6.80;;;5.60;99.90;;;;;;5054414;28;20091;-54
2022/01/23 00:32:03;;;;;;;8.25;6.50;;;5.50;99.90;;;;;;5034692;28;20140;-53
2022/01/23 00:34:47;;;;;;;8.80;6.35;;;5.50;99.90;;;;;;5038732;28;20035;-56
2022/01/23 00:37:31;;;;;;;11.65;6.28;;;5.60;99.90;;;;;;5054566;28;20562;-56
2022/01/23 00:40:16;;;;;;;11.10;7.17;;;5.40;99.90;;;;;;5054128;28;20063;-54
2022/01/23 00:43:01;;;;;;;9.33;7.23;;;5.30;99.90;;;;;;5054108;28;20048;-50
2022/01/23 00:45:49;;;;;;;10.10;6.47;;;5.50;99.90;;;;;;5053079;28;20070;-54
2022/01/23 00:48:36;;;;;;;11.05;7.25;;;5.50;99.90;;;;;;5054009;28;20044;-51
2022/01/23 00:51:20;;;;;;;11.40;7.80;;;5.50;99.90;;;;;;5054136;28;20072;-52
2022/01/23 00:54:10;;;;;;;10.30;7.50;;;5.40;99.90;;;;;;5052700;28;20060;-52
2022/01/23 00:56:54;;;;;;;14.27;9.23;;;5.40;99.90;;;;;;5053820;28;20079;-58
2022/01/23 00:59:38;;;;;;;11.60;8.23;;;5.40;99.90;;;;;;5054143;28;20523;-57
2022/01/23 01:02:22;;;;;;;12.70;8.23;;;5.40;99.90;;;;;;5053666;28;20086;-54
2022/01/23 01:05:06;;;;;;;13.97;9.03;;;5.50;99.90;;;;;;5053806;28;20040;-52
2022/01/23 01:07:50;;;;;;;12.52;9.70;;;5.40;99.90;;;;;;5053927;28;20036;-55
2022/01/23 01:10:53;;;;;;;14.07;10.73;;;5.30;99.90;;;;;;5032960;28;20080;-58
2022/01/23 01:16:55;;;;;;;13.27;9.93;;;5.40;99.90;;;;;;5053933;28;20075;-55
2022/01/23 01:31:58;;;;;;;15.70;11.07;;;5.40;99.90;;;;;;5052418;28;20032;-54
2022/01/23 01:34:49;;;;;;;16.08;11.18;;;5.40;99.90;;;;;;5053177;28;20044;-51
2022/01/23 01:37:33;;;;;;;15.02;11.13;;;5.50;99.90;;;;;;5052252;28;20071;-57
2022/01/23 01:40:19;;;;;;;15.65;10.48;;;5.50;99.90;;;;;;5053259;28;20151;-58
2022/01/23 01:43:04;;;;;;;15.20;10.45;;;5.60;99.90;;;;;;5052845;28;20040;-58
2022/01/23 01:45:48;;;;;;;14.63;10.82;;;5.50;99.90;;;;;;5037417;28;20039;-56
2022/01/23 01:48:32;;;;;;;13.57;10.90;;;5.50;99.90;;;;;;5052595;28;20135;-55
2022/01/23 01:51:17;;;;;;;15.55;10.90;;;5.40;99.90;;;;;;5052732;28;20606;-57
2022/01/23 01:54:15;;;;;;;17.25;11.75;;;5.40;99.90;;;;;;5051281;28;20040;-53
2022/01/23 01:57:05;;;;;;;13.77;10.55;;;5.40;99.90;;;;;;5051487;28;20083;-49
2022/01/23 02:00:11;;;;;;;16.65;10.82;;;5.50;99.90;;;;;;5051800;28;20437;-57
2022/01/23 02:03:24;;;;;;;14.40;10.30;;;5.40;99.90;;;;;;5052595;28;20403;-57
2022/01/23 02:09:17;;;;;;;14.90;10.30;;;5.40;99.90;;;;;;5052449;28;20028;-55
2022/01/23 02:18:12;;;;;;;14.27;10.38;;;5.40;99.90;;;;;;5050328;28;20078;-50
2022/01/23 02:54:39;;;;;;;18.58;13.05;;;5.20;99.90;;;;;;5051208;28;20111;-50
2022/01/23 03:00:48;;;;;;;19.00;13.00;;;5.10;99.90;;;;;;5038987;28;20092;-54
2022/01/23 03:03:37;;;;;;;18.95;12.82;;;5.00;99.90;;;;;;5031688;28;20040;-55
2022/01/23 03:15:15;;;;;;;17.13;12.82;;;5.10;99.90;;;;;;5055810;28;20060;-56
2022/01/23 03:24:10;;;;;;;18.83;12.38;;;5.00;99.90;;;;;;5054027;28;20040;-57
2022/01/23 03:24:43;;;;;;;18.20;12.60;;;5.00;99.90;;;;;;5035246;28;20056;-51
2022/01/23 03:30:23;;;;;;;19.35;13.43;;;4.90;99.90;;;;;;5055242;28;20044;-49
2022/01/23 03:33:07;;;;;;;18.17;13.13;;;5.00;99.90;;;;;;5055637;28;20148;-53
2022/01/23 03:35:51;;;;;;;23.00;14.30;;;5.00;99.90;;;;;;5054358;28;20187;-55
2022/01/23 03:38:35;;;;;;;18.17;13.52;;;5.00;99.90;;;;;;5055412;28;20063;-56
2022/01/23 03:41:19;;;;;;;16.55;12.05;;;5.10;99.90;;;;;;5055037;28;20190;-52
2022/01/23 03:44:06;;;;;;;19.42;12.48;;;5.00;99.90;;;;;;5068245;28;20110;-51
2022/01/23 03:49:35;;;;;;;19.83;12.47;;;5.00;99.90;;;;;;5038058;28;20079;-50
2022/01/23 03:52:19;;;;;;;18.52;13.40;;;5.00;99.90;;;;;;5047034;28;20036;-52
2022/01/23 03:55:05;;;;;;;17.98;12.60;;;5.10;99.90;;;;;;5051692;28;20048;-53
2022/01/23 03:57:49;;;;;;;17.58;12.15;;;5.00;99.90;;;;;;5055258;28;20057;-56
2022/01/23 04:00:34;;;;;;;19.98;13.00;;;4.90;99.90;;;;;;5055287;28;20064;-55
2022/01/23 04:03:19;;;;;;;16.02;12.15;;;5.10;99.90;;;;;;5054899;28;20511;-54
2022/01/23 04:06:04;;;;;;;17.90;12.02;;;5.00;99.90;;;;;;5054657;28;20040;-50
2022/01/23 04:08:49;;;;;;;17.02;12.07;;;5.00;99.90;;;;;;5055035;28;20039;-51
2022/01/23 04:11:33;;;;;;;16.38;12.35;;;5.00;99.90;;;;;;5054994;28;20112;-52
2022/01/23 04:14:19;;;;;;;18.08;12.35;;;5.10;99.90;;;;;;5054493;28;20055;-52
2022/01/23 04:20:41;;;;;;;15.45;11.30;;;5.20;99.90;;;;;;5054610;28;20243;-55
2022/01/23 05:00:00;;;;;;;12.82;8.70;;;4.70;99.90;;;;;;5053687;28;20036;-52
2022/01/23 05:05:37;;;;;;;13.70;8.75;;;4.80;99.90;;;;;;5049860;28;20103;-52
2022/01/23 05:08:21;;;;;;;11.20;8.30;;;4.90;99.90;;;;;;5053887;28;20086;-56
2022/01/23 05:11:08;;;;;;;10.40;8.10;;;4.70;99.90;;;;;;5053547;28;20044;-53
2022/01/23 05:13:52;;;;;;;15.38;9.45;;;4.70;99.90;;;;;;5053641;28;20028;-51
2022/01/23 05:16:36;;;;;;;12.65;9.30;;;4.50;99.90;;;;;;5053744;28;20172;-59
2022/01/23 05:19:20;;;;;;;14.32;10.30;;;4.40;99.90;;;;;;5053227;28;20048;-55
2022/01/23 05:24:57;;;;;;;15.23;11.15;;;4.20;99.90;;;;;;5052073;28;20052;-52
2022/01/23 05:27:41;;;;;;;15.68;11.30;;;4.30;99.90;;;;;;5052397;28;20087;-50
2022/01/23 05:30:25;;;;;;;16.83;11.70;;;4.40;99.90;;;;;;5033330;28;20048;-53
2022/01/23 05:33:09;;;;;;;15.07;11.70;;;4.50;99.90;;;;;;5035360;28;20417;-56
2022/01/23 05:35:54;;;;;;;16.90;11.52;;;4.60;99.90;;;;;;5052491;28;20036;-48
2022/01/23 05:38:38;;;;;;;16.15;11.63;;;4.70;99.90;;;;;;5053004;28;20099;-53
2022/01/23 05:41:22;;;;;;;15.98;12.57;;;4.80;99.90;;;;;;5044799;28;20028;-51
2022/01/23 05:44:06;;;;;;;17.85;12.32;;;4.90;99.90;;;;;;5050614;28;20039;-50
2022/01/23 05:46:51;;;;;;;16.38;12.52;;;5.00;99.90;;;;;;5052070;28;20063;-54
2022/01/23 05:49:36;;;;;;;20.70;14.18;;;4.80;99.90;;;;;;5045278;28;20511;-59
2022/01/23 05:52:20;;;;;;;21.08;12.60;;;4.60;99.90;;;;;;5048194;28;20554;-55
2022/01/23 05:55:05;;;;;;;21.00;13.38;;;4.70;99.90;;;;;;5033655;28;20118;-55
2022/01/23 05:57:49;;;;;;;;;;;4.70;99.90;;;;;;5041723;28;20082;-55
2022/01/23 06:00:33;;;;;;;17.60;12.00;;;4.70;99.90;;;;;;5051776;28;20390;-50
2022/01/23 06:03:17;;;;;;;18.98;13.23;;;4.80;99.90;;;;;;5053147;28;20036;-54
2022/01/23 06:06:01;;;;;;;17.40;13.05;;;4.80;99.90;;;;;;5051829;28;20516;-50
2022/01/23 06:08:46;;;;;;;18.27;12.35;;;4.70;99.90;;;;;;5053070;28;20115;-58
2022/01/23 06:11:30;;;;;;;17.35;12.95;;;4.70;99.90;;;;;;5052056;28;20103;-53
2022/01/23 06:14:14;;;;;;;17.08;12.65;;;4.60;99.90;;;;;;5051107;28;20032;-57
2022/01/23 06:16:58;;;;;;;18.33;12.50;;;4.70;99.90;;;;;;5041572;28;20048;-55
2022/01/23 06:19:42;;;;;;;20.80;13.93;;;4.70;99.90;;;;;;5032972;28;20041;-58
2022/01/23 06:22:26;;;;;;;15.30;11.07;;;4.70;99.90;;;;;;5050115;28;20055;-57
2022/01/23 06:25:13;;;;;;;15.65;11.63;;;4.70;99.90;;;;;;5052535;28;20036;-50
2022/01/23 06:27:57;;;;;;;16.80;11.65;;;4.70;99.90;;;;;;5032585;28;20056;-52
2022/01/23 06:30:41;;;;;;;15.90;11.77;;;4.80;99.90;;;;;;5044266;28;20098;-51
2022/01/23 06:33:25;;;;;;;16.15;11.85;;;4.70;99.90;;;;;;5051265;28;20039;-56
2022/01/23 06:36:09;;;;;;;16.05;11.68;;;4.70;99.90;;;;;;5047064;28;20053;-58
2022/01/23 06:38:53;;;;;;;16.25;11.95;;;4.80;99.90;;;;;;5053113;28;20040;-58
2022/01/23 06:41:37;;;;;;;20.10;11.98;;;4.60;99.90;;;;;;5052169;28;20522;-58
2022/01/23 06:44:22;;;;;;;17.38;11.75;;;4.50;99.90;;;;;;5052552;28;20431;-55
2022/01/23 06:47:07;;;;;;;17.27;11.93;;;4.50;99.90;;;;;;5032793;28;20098;-54
2022/01/23 06:49:51;;;;;;;17.05;12.25;;;4.50;99.90;;;;;;5051880;28;20087;-50
2022/01/23 06:52:35;;;;;;;17.55;12.80;;;4.60;99.90;;;;;;5049676;28;20036;-56
2022/01/23 06:55:19;;;;;;;19.05;12.93;;;4.60;99.90;;;;;;5050147;28;20176;-53
2022/01/23 06:58:03;;;;;;;16.63;11.97;;;4.70;99.90;;;;;;5051786;28;20044;-55
2022/01/23 07:00:47;;;;;;;18.88;12.10;;;4.60;99.90;;;;;;5031740;28;20471;-54
2022/01/23 07:03:31;;;;;;;20.17;12.32;;;4.60;99.90;;;;;;5033883;28;20060;-57
2022/01/23 07:06:15;;;;;;;13.90;10.75;;;4.70;99.90;;;;;;5037100;28;20044;-56
2022/01/23 07:08:59;;;;;;;15.40;11.35;;;4.60;99.90;;;;;;5049693;28;20056;-51
2022/01/23 07:11:44;;;;;;;13.23;9.63;;;4.60;99.90;;;;;;5051393;28;20180;-48
2022/01/23 07:14:30;;;;;;;12.02;8.95;;;4.70;99.90;;;;;;5051315;28;20056;-53
2022/01/23 07:17:14;;;;;;;12.82;8.98;;;4.80;99.90;;;;;;5045297;28;20040;-56
2022/01/23 07:19:58;;;;;;;10.80;8.57;;;4.90;99.90;;;;;;5049691;28;20098;-55
2022/01/23 07:22:43;;;;;;;14.13;9.13;;;5.00;99.90;;;;;;5047214;28;20545;-51
2022/01/23 07:25:27;;;;;;;12.60;8.53;;;4.90;99.90;;;;;;5043198;28;20064;-52
2022/01/23 07:28:14;;;;;;;12.82;9.82;;;4.80;99.90;;;;;;5050230;28;20071;-51
2022/01/23 07:31:03;;;;;;;13.02;8.63;;;4.90;99.90;;;;;;5051477;28;20047;-56
2022/01/23 07:33:47;;;;;;;10.57;8.23;;;5.00;99.90;;;;;;5045661;28;20033;-59
2022/01/23 07:36:33;;;;;;;10.95;8.30;;;5.10;99.90;;;;;;5051998;28;20059;-54
2022/01/23 07:39:17;;;;;;;10.25;7.25;;;5.10;99.90;;;;;;5051622;28;20077;-52
2022/01/23 07:42:01;;;;;;;10.75;8.32;;;5.20;99.90;;;;;;5051652;28;20523;-64
2022/01/23 07:44:45;;;;;;;10.77;8.35;;;5.10;99.90;;;;;;5052010;28;20040;-57
2022/01/23 07:47:29;;;;;;;11.10;8.48;;;5.10;99.90;;;;;;5051046;28;20036;-53
2022/01/23 07:50:14;;;;;;;12.93;8.45;;;4.90;99.90;;;;;;5053292;28;20036;-54
2022/01/23 07:52:58;;;;;;;13.60;8.55;;;4.90;99.90;;;;;;5046069;28;20032;-57
2022/01/23 07:55:42;;;;;;;13.23;9.23;;;4.90;99.90;;;;;;5054987;28;20052;-56
2022/01/23 07:58:26;;;;;;;11.70;7.85;;;5.20;99.90;;;;;;5055241;28;20048;-55
2022/01/23 08:01:10;;;;;;;11.87;8.90;;;5.20;99.90;;;;;;5054403;28;20454;-53
2022/01/23 08:03:54;;;;;;;12.25;8.43;;;5.30;99.90;;;;;;5043866;28;20417;-53
2022/01/23 08:06:44;;;;;;;12.60;8.45;;;5.30;99.90;;;;;;5053955;28;20558;-55
2022/01/23 08:09:29;;;;;;;12.50;8.50;;;5.00;99.90;;;;;;5055131;28;20131;-55
2022/01/23 08:12:13;;;;;;;13.15;9.07;;;4.90;99.90;;;;;;5036072;28;20037;-55
2022/01/23 08:14:59;;;;;;;11.98;8.88;;;5.10;99.90;;;;;;5040593;28;20488;-55
2022/01/23 08:17:43;;;;;;;13.18;9.18;;;5.00;99.90;;;;;;5056514;28;20179;-53
2022/01/23 08:20:27;;;;;;;11.80;8.68;;;5.00;99.90;;;;;;5053873;28;20052;-55
2022/01/23 08:23:13;;;;;;;11.63;8.18;;;5.20;99.90;;;;;;5054648;28;20087;-57
2022/01/23 08:25:57;;;;;;;10.48;8.30;;;5.10;99.90;;;;;;5034500;28;20048;-55
2022/01/23 08:28:41;;;;;;;10.45;9.20;;;5.10;99.90;;;;;;5049113;28;20508;-54
2022/01/23 08:31:25;;;;;;;13.45;8.80;;;5.20;99.90;;;;;;5053478;28;20075;-55
2022/01/23 08:34:09;;;;;;;9.90;7.50;;;5.10;99.90;;;;;;5039242;28;20036;-53
2022/01/23 08:36:55;;;;;;;11.23;7.80;;;5.20;99.90;;;;;;5053251;28;20535;-54
2022/01/23 08:39:42;;;;;;;11.32;8.27;;;5.20;99.90;;;;;;5053728;28;20040;-60
2022/01/23 08:42:26;;;;;;;15.43;8.07;;;5.10;99.90;;;;;;5044381;28;20040;-56
2022/01/23 08:45:11;;;;;;;12.68;8.73;;;5.10;99.90;;;;;;5034934;28;20455;-57
2022/01/23 08:47:55;;;;;;;11.00;8.88;;;5.00;99.90;;;;;;5046874;28;20063;-55
2022/01/23 08:50:42;;;;;;;11.32;8.18;;;4.90;99.90;;;;;;5054258;28;20036;-58
2022/01/23 08:53:26;;;;;;;11.77;7.97;;;4.90;99.90;;;;;;5052656;28;20061;-52
2022/01/23 08:56:10;;;;;;;11.02;8.23;;;4.90;99.90;;;;;;5054531;28;20116;-50
2022/01/23 08:58:55;;;;;;;9.77;7.53;;;5.10;99.90;;;;;;5047670;28;20040;-58
2022/01/23 09:01:40;;;;;;;8.85;6.85;;;5.20;99.90;;;;;;5051456;28;20044;-58
2022/01/23 09:04:24;;;;;;;10.80;7.67;;;5.30;99.90;;;;;;5052651;28;20588;-55
2022/01/23 09:07:08;;;;;;;10.38;7.90;;;5.30;99.90;;;;;;5045969;28;20044;-59
2022/01/23 09:10:00;;;;;;;11.35;7.15;;;5.40;99.90;;;;;;5044543;28;20152;-56
2022/01/23 09:12:58;;;;;;;10.52;7.75;;;5.20;99.90;;;;;;5053836;28;20104;-54
2022/01/23 09:15:44;;;;;;;12.65;7.57;;;5.10;99.90;;;;;;5052007;28;20071;-56
2022/01/23 09:18:28;;;;;;;10.52;7.53;;;5.20;99.90;;;;;;5052660;28;20495;-61
2022/01/23 09:21:13;;;;;;;11.68;6.97;;;5.10;99.90;;;;;;5037399;28;20404;-58
2022/01/23 09:23:58;;;;;;;10.02;7.35;;;5.30;99.90;;;;;;5052514;28;20111;-57
2022/01/23 09:26:42;;;;;;;7.57;6.18;;;5.30;99.90;;;;;;5053623;28;20325;-57
2022/01/23 09:29:36;;;;;;;10.05;7.53;;;5.30;99.90;;;;;;5054125;28;20151;-56
2022/01/23 09:32:22;;;;;;;10.05;6.38;;;5.40;99.90;;;;;;5053401;28;20078;-53
2022/01/23 09:35:06;;;;;;;10.15;6.80;;;5.40;99.90;;;;;;5053781;28;20527;-58
2022/01/23 09:37:51;;;;;;;10.02;6.93;;;5.50;99.90;;;;;;5052729;28;20043;-60
2022/01/23 09:40:40;;;;;;;8.63;6.57;;;5.40;99.90;;;;;;5056077;28;20048;-61
2022/01/23 09:43:27;;;;;;;8.38;6.72;;;5.40;99.90;;;;;;5050819;28;20048;-60
2022/01/23 09:46:14;;;;;;;10.27;7.47;;;5.50;99.90;;;;;;5057753;28;20050;-58
2022/01/23 09:48:58;;;;;;;9.73;7.55;;;5.30;99.90;;;;;;5041013;28;20044;-58
2022/01/23 09:51:45;;;;;;;12.00;8.55;;;5.40;99.90;;;;;;5061677;28;20083;-58
2022/01/23 09:54:31;;;;;;;10.65;7.53;;;5.30;99.90;;;;;;5061372;28;20060;-59
2022/01/23 09:57:19;;;;;;;10.73;6.95;;;5.40;99.90;;;;;;5063345;28;20174;-56
2022/01/23 10:00:07;;;;;;;9.82;6.97;;;5.50;99.90;;;;;;5056948;28;20039;-62
2022/01/23 10:02:52;;;;;;;9.35;6.88;;;5.60;99.90;;;;;;5055379;28;20082;-57
2022/01/23 10:05:38;;;;;;;9.93;6.40;;;5.70;99.90;;;;;;5058398;28;20040;-50
2022/01/23 10:08:24;;;;;;;10.98;7.10;;;5.60;99.90;;;;;;5061963;28;20165;-54
2022/01/23 10:11:11;;;;;;;7.85;6.10;;;5.60;99.90;;;;;;5061609;28;20040;-58
2022/01/23 10:13:56;;;;;;;8.75;6.00;;;5.60;99.90;;;;;;5058165;28;20447;-57
2022/01/23 10:16:40;;;;;;;9.73;6.55;;;5.70;99.90;;;;;;5058419;28;20404;-57
2022/01/23 10:19:25;;;;;;;8.02;6.00;;;5.70;99.90;;;;;;5057960;28;20606;-59
2022/01/23 10:22:09;;;;;;;9.82;6.72;;;5.60;99.90;;;;;;5045992;28;20043;-57
2022/01/23 10:25:05;;;;;;;8.15;5.72;;;5.70;99.90;;;;;;5065332;28;20036;-53
2022/01/23 10:28:06;;;;;;;6.97;5.72;;;5.90;99.90;;;;;;5036367;28;20075;-51
2022/01/23 10:30:56;;;;;;;7.85;5.75;;;5.70;99.90;;;;;;5036437;28;20040;-56
2022/01/23 10:33:40;;;;;;;6.80;5.40;;;5.90;99.90;;;;;;5056865;28;20126;-56
2022/01/23 10:36:24;;;;;;;9.10;5.53;;;5.90;99.90;;;;;;5056295;28;20517;-56
2022/01/23 10:39:08;;;;;;;6.50;5.40;;;5.80;99.90;;;;;;5051720;28;20043;-60
2022/01/23 10:42:12;;;;;;;7.97;5.90;;;5.80;99.90;;;;;;5044375;28;20041;-57
2022/01/23 10:48:11;;;;;;;11.45;7.70;;;6.00;99.90;;;;;;5051130;28;20507;-63
2022/01/23 10:51:16;;;;;;;8.05;6.20;;;6.10;99.90;;;;;;5047181;28;20036;-57
2022/01/23 10:54:16;;;;;;;8.40;6.20;;;6.10;99.90;;;;;;5051621;28;20401;-59
2022/01/23 10:57:07;;;;;;;9.70;6.75;;;6.00;99.90;;;;;;5032947;28;20040;-53
2022/01/23 10:59:53;;;;;;;7.90;6.47;;;5.80;99.90;;;;;;5057293;28;20487;-57
2022/01/23 11:02:42;;;;;;;7.88;5.82;;;5.90;99.90;;;;;;5051711;28;20037;-54
2022/01/23 11:05:32;;;;;;;8.38;6.43;;;6.00;99.90;;;;;;5051835;28;20063;-56
2022/01/23 11:08:30;;;;;;;10.85;6.93;;;6.00;99.90;;;;;;5052309;28;20109;-57
2022/01/23 11:11:15;;;;;;;9.25;6.32;;;6.10;99.90;;;;;;5052828;28;20112;-58
2022/01/23 11:17:23;;;;;;;8.45;6.43;;;6.40;99.90;;;;;;5052501;28;20400;-60
2022/01/23 11:20:08;;;;;;;7.00;5.80;;;6.30;99.90;;;;;;5051186;28;20043;-55
2022/01/23 11:23:01;;;;;;;9.70;6.03;;;6.30;99.90;;;;;;5036753;28;20098;-52
2022/01/23 11:25:51;;;;;;;8.80;6.50;;;6.20;99.90;;;;;;5052046;28;20502;-52
2022/01/23 11:28:38;;;;;;;8.32;6.78;;;6.40;99.90;;;;;;5054547;28;20072;-54
2022/01/23 11:31:24;;;;;;;8.38;6.47;;;6.30;99.90;;;;;;5057393;28;20036;-56
2022/01/23 11:34:11;;;;;;;8.68;6.80;;;6.20;99.90;;;;;;5056205;28;20035;-56
2022/01/23 11:36:55;;;;;;;9.73;7.43;;;6.30;99.90;;;;;;5056523;28;20108;-56
2022/01/23 11:39:47;;;;;;;9.70;8.02;;;6.40;99.90;;;;;;5041708;28;20105;-57
2022/01/23 11:54:56;;;;;;;9.35;7.60;;;6.70;99.90;;;;;;5046152;28;20098;-55
2022/01/23 11:57:42;;;;;;;8.50;7.22;;;6.70;99.90;;;;;;5055167;28;20071;-56
2022/01/23 12:00:36;;;;;;;8.45;7.55;;;6.80;99.90;;;;;;5055221;28;20040;-59
2022/01/23 12:03:21;;;;;;;8.90;6.95;;;6.70;99.90;;;;;;5054078;28;20039;-53
2022/01/23 12:06:15;;;;;;;8.85;7.05;;;6.80;99.90;;;;;;5053929;28;20036;-53
2022/01/23 12:09:25;;;;;;;7.50;6.68;;;6.80;99.90;;;;;;5053816;28;20562;-56
2022/01/23 12:12:36;;;;;;;7.75;6.63;;;7.00;99.90;;;;;;5054698;28;20086;-56
2022/01/23 12:18:33;;;;;;;10.30;8.27;;;7.00;99.90;;;;;;5049246;28;20068;-57
2022/01/23 12:21:31;;;;;;;9.93;8.03;;;6.90;99.90;;;;;;5054678;28;20412;-57
2022/01/23 12:24:17;;;;;;;9.05;7.97;;;6.80;99.90;;;;;;5060893;28;20048;-52
2022/01/23 12:27:24;;;;;;;9.00;7.30;;;6.60;99.90;;;;;;5054775;28;20039;-55
2022/01/23 12:30:24;;;;;;;11.32;8.77;;;6.40;99.90;;;;;;5033726;28;20076;-56
2022/01/23 12:33:09;;;;;;;13.45;8.23;;;6.40;99.90;;;;;;5050410;28;20036;-54
2022/01/23 12:35:57;;;;;;;10.48;8.27;;;6.50;99.90;;;;;;5051218;28;20140;-51
2022/01/23 12:38:46;;;;;;;9.25;7.93;;;6.60;99.90;;;;;;5053532;28;20043;-52
2022/01/23 12:41:39;;;;;;;9.20;7.30;;;6.80;99.90;;;;;;5053416;28;20032;-51
2022/01/23 12:44:23;;;;;;;9.00;6.57;;;6.90;99.90;;;;;;5054149;28;20511;-59
2022/01/23 12:47:18;;;;;;;8.50;7.60;;;6.90;99.90;;;;;;5053431;28;20028;-51
2022/01/23 12:50:04;;;;;;;9.70;8.10;;;6.80;99.90;;;;;;5054566;28;20078;-59
2022/01/23 12:52:49;;;;;;;;;;;6.70;99.90;;;;;;5054501;28;20075;-57
2022/01/23 12:55:33;;;;;;;8.93;7.63;;;6.60;99.90;;;;;;5052548;28;19915;-53
2022/01/23 12:58:18;;;;;;;11.05;8.98;;;6.60;99.90;;;;;;5051575;28;20094;-57
2022/01/23 13:01:28;;;;;;;11.38;9.20;;;6.50;99.90;;;;;;5038404;28;20451;-54
2022/01/23 13:04:15;;;;;;;16.27;9.63;;;6.40;99.90;;;;;;5054105;28;20044;-58
2022/01/23 13:07:07;;;;;;;11.00;9.60;;;6.40;99.90;;;;;;5054199;28;20051;-56
2022/01/23 13:10:03;;;;;;;12.93;9.73;;;6.30;99.90;;;;;;5054077;28;20067;-59
2022/01/23 13:13:05;;;;;;;11.57;9.35;;;6.30;99.90;;;;;;5053833;28;20089;-59
2022/01/23 13:16:14;;;;;;;10.63;8.75;;;6.40;99.90;;;;;;5033994;28;20067;-56
2022/01/23 13:31:31;;;;;;;10.55;8.45;;;6.80;99.90;;;;;;5046463;28;20025;-60
2022/01/23 13:34:37;;;;;;;8.95;7.75;;;6.90;99.90;;;;;;5054498;28;20599;-52
2022/01/23 13:37:34;;;;;;;11.00;8.68;;;6.90;99.90;;;;;;5053987;28;20071;-54
2022/01/23 13:40:25;;;;;;;8.45;7.60;;;7.00;99.90;;;;;;5052771;28;20558;-59
2022/01/23 13:50:02;;;;;;;9.15;7.68;;;7.00;99.90;;;;;;5052106;28;20090;-60
2022/01/23 13:53:08;;;;;;;8.25;7.35;;;7.00;99.90;;;;;;5052324;28;20392;-56
2022/01/23 13:58:35;;;;;;;7.80;6.93;;;6.90;99.90;;;;;;5052974;28;20035;-56
2022/01/23 14:04:13;;;;;;;7.65;6.22;;;6.90;99.90;;;;;;5051666;28;20044;-58
2022/01/23 14:07:00;;;;;;;7.40;6.63;;;7.00;99.90;;;;;;5032321;28;20037;-53
2022/01/23 14:09:45;;;;;;;8.57;7.22;;;7.00;99.90;;;;;;5034342;28;20416;-56
2022/01/23 14:12:32;;;;;;;9.00;7.03;;;7.00;99.90;;;;;;5033215;28;20063;-58
2022/01/23 14:15:25;;;;;;;8.80;7.90;;;6.90;99.90;;;;;;5033063;28;20091;-56
2022/01/23 14:18:13;;;;;;;10.77;7.28;;;6.70;99.90;;;;;;5032918;28;20076;-58
2022/01/23 14:21:09;;;;;;;9.70;8.07;;;6.70;99.90;;;;;;5046069;28;20044;-57
2022/01/23 14:23:55;;;;;;;9.32;7.75;;;6.90;99.90;;;;;;5050368;28;20040;-53
2022/01/23 14:26:40;;;;;;;8.95;7.40;;;6.90;99.90;;;;;;5052626;28;20051;-56
2022/01/23 14:29:25;;;;;;;9.45;7.32;;;6.90;99.90;;;;;;5053107;28;20075;-55
2022/01/23 14:32:20;;;;;;;;;;;6.90;99.90;;;;;;5052950;28;20082;-56
2022/01/23 14:35:13;;;;;;;9.73;7.90;;;6.80;99.90;;;;;;5052376;28;19911;-60
2022/01/23 14:38:23;;;;;;;9.15;7.93;;;7.00;99.90;;;;;;5052600;28;20036;-54
2022/01/23 14:41:11;;;;;;;8.50;7.20;;;6.90;99.90;;;;;;5052830;28;20082;-53
2022/01/23 14:43:56;;;;;;;9.05;6.97;;;7.00;99.90;;;;;;5051681;28;20074;-56
2022/01/23 14:46:40;;;;;;;;;;;6.90;99.90;;;;;;5051903;28;20067;-57
2022/01/23 14:49:28;;;;;;;6.22;5.63;;;7.00;99.90;;;;;;5065608;28;19916;-52
2022/01/23 14:52:14;;;;;;;6.43;5.40;;;7.10;99.90;;;;;;5051998;28;20530;-52
2022/01/23 14:54:58;;;;;;;;;;;7.10;99.90;;;;;;5053032;28;20043;-52
2022/01/23 14:57:44;;;;;;;5.80;4.80;;;7.00;99.90;;;;;;5051829;28;19920;-53
2022/01/23 15:00:33;;;;;;;6.90;5.15;;;7.00;99.90;;;;;;5051836;28;20396;-54
2022/01/23 15:03:19;;;;;;;8.13;5.53;;;7.00;99.90;;;;;;5051276;28;20032;-54
2022/01/23 15:06:04;;;;;;;8.35;5.97;;;6.90;99.90;;;;;;5051736;28;20075;-62
2022/01/23 15:08:49;;;;;;;7.53;6.22;;;7.00;99.90;;;;;;5050912;28;20087;-55
2022/01/23 15:11:35;;;;;;;9.73;6.25;;;6.90;99.90;;;;;;5050917;28;20036;-59
2022/01/23 15:14:19;;;;;;;6.90;6.03;;;6.90;99.90;;;;;;5051035;28;20039;-54
2022/01/23 15:17:04;;;;;;;6.43;5.82;;;6.80;99.90;;;;;;5050759;28;20040;-56
2022/01/23 15:19:48;;;;;;;6.15;5.45;;;6.90;99.90;;;;;;5051906;28;20048;-53
2022/01/23 15:22:34;;;;;;;7.63;6.78;;;6.90;99.90;;;;;;5053114;28;20037;-52
2022/01/23 15:25:19;;;;;;;9.63;7.03;;;6.70;99.90;;;;;;5053772;28;20051;-55
2022/01/23 15:28:04;;;;;;;11.55;7.65;;;6.60;99.90;;;;;;5053686;28;20031;-57
2022/01/23 15:30:49;;;;;;;8.20;7.25;;;6.60;99.90;;;;;;5053996;28;20059;-58
2022/01/23 15:33:33;;;;;;;11.50;7.50;;;6.70;99.90;;;;;;5052922;28;20507;-58
2022/01/23 15:36:21;;;;;;;8.35;7.18;;;6.70;99.90;;;;;;5053203;28;20638;-58
2022/01/23 15:39:06;;;;;;;9.40;7.55;;;6.70;99.90;;;;;;5050692;28;20036;-56
2022/01/23 15:41:51;;;;;;;8.43;7.20;;;6.70;99.90;;;;;;5051699;28;20041;-56
2022/01/23 15:44:36;;;;;;;8.18;7.18;;;6.70;99.90;;;;;;5032305;28;20086;-59
2022/01/23 15:47:20;;;;;;;10.70;7.68;;;6.60;99.90;;;;;;5017799;28;20095;-55
2022/01/23 15:50:06;;;;;;;10.05;7.38;;;6.70;99.90;;;;;;5032334;28;20028;-58
2022/01/23 15:52:50;;;;;;;8.93;6.93;;;6.60;99.90;;;;;;5030618;28;20048;-57
2022/01/23 15:55:35;;;;;;;9.38;7.10;;;6.70;99.90;;;;;;5032037;28;20113;-56
2022/01/23 15:58:20;;;;;;;9.43;6.88;;;6.70;99.90;;;;;;5032514;28;20040;-58
2022/01/23 16:01:05;;;;;;;10.77;6.63;;;6.60;99.90;;;;;;5032244;28;20032;-56
2022/01/23 16:03:49;;;;;;;8.32;6.63;;;6.50;99.90;;;;;;5031374;28;20055;-53
2022/01/23 16:06:35;;;;;;;8.38;6.13;;;6.40;99.90;;;;;;5048840;28;20086;-52
2022/01/23 16:09:19;;;;;;;10.45;7.18;;;6.30;99.90;;;;;;5051622;28;20047;-51
2022/01/23 16:12:05;;;;;;;9.15;6.45;;;6.50;99.90;;;;;;5051330;28;20027;-54
2022/01/23 16:14:49;;;;;;;;;;;6.60;99.90;;;;;;5052190;28;20040;-57
2022/01/23 16:17:34;;;;;;;8.00;6.63;;;6.60;99.90;;;;;;5055002;28;20284;-58
2022/01/23 16:20:19;;;;;;;8.60;6.53;;;6.70;99.90;;;;;;5053921;28;20044;-52
2022/01/23 16:23:05;;;;;;;8.88;7.15;;;6.50;99.90;;;;;;5054952;28;20063;-56
2022/01/23 16:25:52;;;;;;;10.30;7.80;;;6.40;99.90;;;;;;5054687;28;20044;-59
2022/01/23 16:28:36;;;;;;;16.70;11.25;;;6.60;99.90;;;;;;5054990;28;20063;-59
2022/01/23 16:31:21;;;;;;;8.85;6.97;;;6.60;99.90;;;;;;5027003;28;20040;-57
2022/01/23 16:34:05;;;;;;;9.57;6.88;;;6.70;99.90;;;;;;5034394;28;20512;-55
2022/01/23 16:36:50;;;;;;;7.30;6.60;;;6.80;99.90;;;;;;5034693;28;20072;-54
2022/01/23 16:39:35;;;;;;;10.15;7.60;;;6.70;99.90;;;;;;5037548;28;20044;-58
2022/01/23 16:42:19;;;;;;;8.48;7.25;;;6.70;99.90;;;;;;5054063;28;20052;-55
2022/01/23 16:45:05;;;;;;;11.57;7.25;;;6.80;99.90;;;;;;5054547;28;20036;-56
2022/01/23 16:47:49;;;;;;;9.57;7.28;;;6.80;99.90;;;;;;5054189;28;20098;-59
2022/01/23 16:50:35;;;;;;;10.25;7.53;;;6.80;99.90;;;;;;5054361;28;20063;-53
2022/01/23 16:53:20;;;;;;;10.00;8.68;;;6.80;99.90;;;;;;5053257;28;20112;-54
2022/01/23 16:56:04;;;;;;;9.93;8.50;;;6.80;99.90;;;;;;5053512;28;20039;-54
2022/01/23 16:58:49;;;;;;;10.98;7.97;;;6.80;99.90;;;;;;5053298;28;20063;-56
2022/01/23 17:01:35;;;;;;;12.10;8.85;;;6.70;99.90;;;;;;5054534;28;20032;-58
2022/01/23 17:04:19;;;;;;;13.05;9.50;;;6.80;99.90;;;;;;5054797;28;20408;-56
2022/01/23 17:07:04;;;;;;;13.00;9.77;;;6.70;99.90;;;;;;5049789;28;20032;-55
2022/01/23 17:09:48;;;;;;;13.23;9.57;;;6.50;99.90;;;;;;5042383;28;20056;-57
2022/01/23 17:12:33;;;;;;;12.15;9.23;;;6.60;99.90;;;;;;5033037;28;20072;-55
2022/01/23 17:15:18;;;;;;;13.07;9.80;;;6.60;99.90;;;;;;5036609;28;20468;-56
2022/01/23 17:18:04;;;;;;;14.75;10.07;;;6.70;99.90;;;;;;5052691;28;20400;-58
2022/01/23 17:20:49;;;;;;;12.52;9.75;;;6.70;99.90;;;;;;5045171;28;20102;-56
2022/01/23 17:23:34;;;;;;;14.73;9.55;;;6.80;99.90;;;;;;5037387;28;20032;-55
2022/01/23 17:26:20;;;;;;;12.57;10.02;;;6.70;99.90;;;;;;5017803;28;20053;-59
2022/01/23 17:29:05;;;;;;;14.10;10.52;;;6.60;99.90;;;;;;5033895;28;20037;-57
2022/01/23 17:31:50;;;;;;;13.80;9.88;;;6.70;99.90;;;;;;5032817;28;20036;-57
2022/01/23 17:34:38;;;;;;;13.68;9.85;;;6.70;99.90;;;;;;5033851;28;20056;-55